sensor_id;sensor_type;location;lat;lon;timestamp;pressure;altitude;pressure_sealevel;temperature;humidity
20043;BME280;10182;52.896;6.496;2023-02-19T00:01:51;101432.16;;;8.26;100.00
20043;BME280;10182;52.896;6.496;2023-02-19T00:06:54;101424.34;;;8.23;100.00
20043;BME280;10182;52.896;6.496;2023-02-19T00:11:56;101426.91;;;8.26;100.00
20043;BME280;10182;52.896;6.496;2023-02-19T00:16:58;101434.78;;;8.28;100.00
20043;BME280;10182;52.896;6.496;2023-02-19T00:22:01;101426.78;;;8.31;100.00
20043;BME280;10182;52.896;6.496;2023-02-19T00:27:03;101435.47;;;8.35;100.00
20043;BME280;10182;52.896;6.496;2023-02-19T00:32:08;101441.59;;;8.37;100.00
20043;BME280;10182;52.896;6.496;2023-02-19T00:37:11;101437.25;;;8.34;100.00
20043;BME280;10182;52.896;6.496;2023-02-19T00:42:13;101433.78;;;8.32;100.00
20043;BME280;10182;52.896;6.496;2023-02-19T00:47:15;101427.69;;;8.30;100.00
20043;BME280;10182;52.896;6.496;2023-02-19T00:52:18;101425.94;;;8.29;100.00
20043;BME280;10182;52.896;6.496;2023-02-19T00:57:20;101427.69;;;8.30;100.00
20043;BME280;10182;52.896;6.496;2023-02-19T01:02:22;101428.69;;;8.26;100.00
20043;BME280;10182;52.896;6.496;2023-02-19T01:07:28;101429.53;;;8.26;100.00
20043;BME280;10182;52.896;6.496;2023-02-19T01:12:31;101436.66;;;8.23;100.00
20043;BME280;10182;52.896;6.496;2023-02-19T01:17:34;101423.50;;;8.21;100.00
20043;BME280;10182;52.896;6.496;2023-02-19T01:22:37;101424.53;;;8.16;100.00
20043;BME280;10182;52.896;6.496;2023-02-19T01:27:39;101431.69;;;8.12;100.00
20043;BME280;10182;52.896;6.496;2023-02-19T01:32:41;101424.69;;;8.09;100.00
20043;BME280;10182;52.896;6.496;2023-02-19T01:37:44;101434.41;;;8.07;100.00
20043;BME280;10182;52.896;6.496;2023-02-19T01:42:47;101433.59;;;8.05;100.00
20043;BME280;10182;52.896;6.496;2023-02-19T01:47:52;101446.78;;;8.05;100.00
20043;BME280;10182;52.896;6.496;2023-02-19T01:53:00;101445.19;;;8.00;100.00
20043;BME280;10182;52.896;6.496;2023-02-19T01:58:05;101442.50;;;8.01;100.00
20043;BME280;10182;52.896;6.496;2023-02-19T02:03:07;101445.22;;;7.96;100.00
20043;BME280;10182;52.896;6.496;2023-02-19T02:08:14;101439.22;;;7.91;100.00
20043;BME280;10182;52.896;6.496;2023-02-19T02:13:35;101434.13;;;7.84;100.00
20043;BME280;10182;52.896;6.496;2023-02-19T02:18:48;101442.03;;;7.84;100.00
20043;BME280;10182;52.896;6.496;2023-02-19T02:24:05;101443.78;;;7.83;100.00
20043;BME280;10182;52.896;6.496;2023-02-19T02:34:53;101453.66;;;7.76;100.00
20043;BME280;10182;52.896;6.496;2023-02-19T02:39:58;101473.09;;;7.72;100.00
20043;BME280;10182;52.896;6.496;2023-02-19T02:45:22;101476.53;;;7.74;100.00
20043;BME280;10182;52.896;6.496;2023-02-19T02:50:41;101486.28;;;7.72;100.00
20043;BME280;10182;52.896;6.496;2023-02-19T02:55:47;101482.88;;;7.67;100.00
20043;BME280;10182;52.896;6.496;2023-02-19T03:00:53;101492.56;;;7.65;100.00
20043;BME280;10182;52.896;6.496;2023-02-19T03:06:17;101505.88;;;7.60;100.00
20043;BME280;10182;52.896;6.496;2023-02-19T03:11:21;101505.81;;;7.62;100.00
20043;BME280;10182;52.896;6.496;2023-02-19T03:16:42;101519.97;;;7.58;100.00
20043;BME280;10182;52.896;6.496;2023-02-19T03:22:07;101530.59;;;7.55;100.00
20043;BME280;10182;52.896;6.496;2023-02-19T03:27:12;101529.69;;;7.56;100.00
20043;BME280;10182;52.896;6.496;2023-02-19T03:32:19;101529.00;;;7.46;100.00
20043;BME280;10182;52.896;6.496;2023-02-19T03:37:28;101540.47;;;7.43;100.00
20043;BME280;10182;52.896;6.496;2023-02-19T03:42:36;101548.53;;;7.37;100.00
20043;BME280;10182;52.896;6.496;2023-02-19T03:47:46;101551.91;;;7.44;100.00
20043;BME280;10182;52.896;6.496;2023-02-19T03:52:58;101555.66;;;7.32;100.00
20043;BME280;10182;52.896;6.496;2023-02-19T03:58:07;101559.16;;;7.34;100.00
20043;BME280;10182;52.896;6.496;2023-02-19T04:03:18;101568.00;;;7.30;100.00
20043;BME280;10182;52.896;6.496;2023-02-19T04:08:23;101588.09;;;7.36;100.00
20043;BME280;10182;52.896;6.496;2023-02-19T04:13:30;101585.97;;;7.08;100.00
20043;BME280;10182;52.896;6.496;2023-02-19T04:18:37;101592.53;;;6.87;100.00
20043;BME280;10182;52.896;6.496;2023-02-19T04:23:43;101605.78;;;6.81;100.00
20043;BME280;10182;52.896;6.496;2023-02-19T04:28:46;101619.25;;;6.64;100.00
20043;BME280;10182;52.896;6.496;2023-02-19T04:33:48;101632.50;;;6.59;100.00
20043;BME280;10182;52.896;6.496;2023-02-19T04:38:51;101639.53;;;6.57;100.00
20043;BME280;10182;52.896;6.496;2023-02-19T04:43:55;101647.38;;;6.60;100.00
20043;BME280;10182;52.896;6.496;2023-02-19T04:48:57;101661.03;;;6.26;100.00
20043;BME280;10182;52.896;6.496;2023-02-19T04:54:01;101681.25;;;6.24;100.00
20043;BME280;10182;52.896;6.496;2023-02-19T04:59:03;101695.41;;;6.14;100.00
20043;BME280;10182;52.896;6.496;2023-02-19T05:04:05;101708.59;;;6.10;100.00
20043;BME280;10182;52.896;6.496;2023-02-19T05:09:08;101713.97;;;6.03;100.00
20043;BME280;10182;52.896;6.496;2023-02-19T05:14:10;101716.72;;;5.89;100.00
20043;BME280;10182;52.896;6.496;2023-02-19T05:19:12;101720.19;;;5.92;100.00
20043;BME280;10182;52.896;6.496;2023-02-19T05:24:15;101730.63;;;6.03;100.00
20043;BME280;10182;52.896;6.496;2023-02-19T05:29:17;101738.63;;;5.89;100.00
20043;BME280;10182;52.896;6.496;2023-02-19T05:34:19;101747.44;;;5.85;100.00
20043;BME280;10182;52.896;6.496;2023-02-19T05:39:22;101758.81;;;5.86;100.00
20043;BME280;10182;52.896;6.496;2023-02-19T05:44:27;101765.84;;;5.87;100.00
20043;BME280;10182;52.896;6.496;2023-02-19T05:49:29;101780.81;;;5.79;100.00
20043;BME280;10182;52.896;6.496;2023-02-19T05:54:33;101792.34;;;5.64;100.00
20043;BME280;10182;52.896;6.496;2023-02-19T05:59:37;101802.84;;;5.65;100.00
20043;BME280;10182;52.896;6.496;2023-02-19T06:04:39;101808.97;;;5.69;100.00
20043;BME280;10182;52.896;6.496;2023-02-19T06:09:43;101822.16;;;5.63;100.00
20043;BME280;10182;52.896;6.496;2023-02-19T06:14:44;101830.09;;;5.56;100.00
20043;BME280;10182;52.896;6.496;2023-02-19T06:19:46;101827.50;;;5.52;100.00
20043;BME280;10182;52.896;6.496;2023-02-19T06:24:49;101835.34;;;5.55;100.00
20043;BME280;10182;52.896;6.496;2023-02-19T06:29:51;101852.03;;;5.54;100.00
20043;BME280;10182;52.896;6.496;2023-02-19T06:34:53;101866.00;;;5.61;100.00
20043;BME280;10182;52.896;6.496;2023-02-19T06:39:56;101881.81;;;5.53;100.00
20043;BME280;10182;52.896;6.496;2023-02-19T06:44:58;101905.50;;;5.45;100.00
20043;BME280;10182;52.896;6.496;2023-02-19T06:50:00;101919.53;;;5.42;100.00
20043;BME280;10182;52.896;6.496;2023-02-19T06:55:04;101931.13;;;5.11;100.00
20043;BME280;10182;52.896;6.496;2023-02-19T07:00:08;101942.53;;;5.06;100.00
20043;BME280;10182;52.896;6.496;2023-02-19T07:05:10;101956.56;;;4.99;100.00
20043;BME280;10182;52.896;6.496;2023-02-19T07:10:13;101973.19;;;5.01;100.00
20043;BME280;10182;52.896;6.496;2023-02-19T07:15:18;101987.19;;;4.99;100.00
20043;BME280;10182;52.896;6.496;2023-02-19T07:20:20;101997.75;;;4.82;100.00
20043;BME280;10182;52.896;6.496;2023-02-19T07:25:23;101986.38;;;4.86;100.00
20043;BME280;10182;52.896;6.496;2023-02-19T07:30:25;101990.72;;;4.95;100.00
20043;BME280;10182;52.896;6.496;2023-02-19T07:35:27;101980.22;;;4.93;100.00
20043;BME280;10182;52.896;6.496;2023-02-19T07:40:33;101972.34;;;4.98;100.00
20043;BME280;10182;52.896;6.496;2023-02-19T07:45:36;101981.06;;;4.98;100.00
20043;BME280;10182;52.896;6.496;2023-02-19T07:50:38;101986.28;;;5.09;100.00
20043;BME280;10182;52.896;6.496;2023-02-19T07:55:47;101991.59;;;4.98;100.00
20043;BME280;10182;52.896;6.496;2023-02-19T08:00:51;101992.41;;;5.08;100.00
20043;BME280;10182;52.896;6.496;2023-02-19T08:05:53;102007.31;;;5.03;100.00
20043;BME280;10182;52.896;6.496;2023-02-19T08:11:00;102002.00;;;5.15;100.00
20043;BME280;10182;52.896;6.496;2023-02-19T08:16:20;102014.28;;;5.15;100.00
20043;BME280;10182;52.896;6.496;2023-02-19T08:21:23;102028.28;;;5.14;100.00
20043;BME280;10182;52.896;6.496;2023-02-19T08:26:26;102048.41;;;5.18;100.00
20043;BME280;10182;52.896;6.496;2023-02-19T08:31:28;102065.06;;;5.15;100.00
20043;BME280;10182;52.896;6.496;2023-02-19T08:36:30;102080.84;;;5.17;100.00
20043;BME280;10182;52.896;6.496;2023-02-19T08:41:33;102074.69;;;5.16;100.00
20043;BME280;10182;52.896;6.496;2023-02-19T08:46:35;102102.69;;;5.23;100.00
20043;BME280;10182;52.896;6.496;2023-02-19T08:51:40;102099.09;;;5.49;100.00
20043;BME280;10182;52.896;6.496;2023-02-19T08:56:43;102099.09;;;5.55;100.00
20043;BME280;10182;52.896;6.496;2023-02-19T09:01:46;102106.91;;;5.75;100.00
20043;BME280;10182;52.896;6.496;2023-02-19T09:06:48;102117.41;;;5.77;100.00
20043;BME280;10182;52.896;6.496;2023-02-19T09:11:52;102148.91;;;5.86;100.00
20043;BME280;10182;52.896;6.496;2023-02-19T09:16:53;102162.00;;;5.97;100.00
20043;BME280;10182;52.896;6.496;2023-02-19T09:21:55;102169.06;;;5.89;100.00
20043;BME280;10182;52.896;6.496;2023-02-19T09:26:59;102180.44;;;5.86;100.00
20043;BME280;10182;52.896;6.496;2023-02-19T09:32:01;102190.00;;;6.14;100.00
20043;BME280;10182;52.896;6.496;2023-02-19T09:37:08;102195.31;;;6.07;100.00
20043;BME280;10182;52.896;6.496;2023-02-19T09:42:14;102183.03;;;6.11;100.00
20043;BME280;10182;52.896;6.496;2023-02-19T09:47:19;102203.16;;;6.18;100.00
20043;BME280;10182;52.896;6.496;2023-02-19T09:52:27;102219.72;;;6.37;100.00
20043;BME280;10182;52.896;6.496;2023-02-19T09:57:35;102217.97;;;6.35;100.00
20043;BME280;10182;52.896;6.496;2023-02-19T10:02:40;102206.47;;;6.53;100.00
20043;BME280;10182;52.896;6.496;2023-02-19T10:07:45;102200.25;;;6.66;100.00
20043;BME280;10182;52.896;6.496;2023-02-19T10:12:53;102212.59;;;6.55;100.00
20043;BME280;10182;52.896;6.496;2023-02-19T10:17:59;102222.47;;;6.16;100.00
20043;BME280;10182;52.896;6.496;2023-02-19T10:23:02;102231.22;;;6.16;100.00
20043;BME280;10182;52.896;6.496;2023-02-19T10:28:10;102243.53;;;6.08;100.00
20043;BME280;10182;52.896;6.496;2023-02-19T10:33:15;102259.22;;;6.30;100.00
20043;BME280;10182;52.896;6.496;2023-02-19T10:38:19;102254.81;;;6.42;100.00
20043;BME280;10182;52.896;6.496;2023-02-19T10:43:25;102264.53;;;6.19;100.00
20043;BME280;10182;52.896;6.496;2023-02-19T10:48:36;102275.06;;;6.19;100.00
20043;BME280;10182;52.896;6.496;2023-02-19T10:53:41;102268.06;;;6.22;100.00
20043;BME280;10182;52.896;6.496;2023-02-19T10:58:45;102267.06;;;6.43;100.00
20043;BME280;10182;52.896;6.496;2023-02-19T11:03:50;102257.25;;;6.72;100.00
20043;BME280;10182;52.896;6.496;2023-02-19T11:08:55;102260.63;;;6.92;100.00
20043;BME280;10182;52.896;6.496;2023-02-19T11:14:11;102270.16;;;7.09;100.00
20043;BME280;10182;52.896;6.496;2023-02-19T11:19:27;102283.41;;;7.01;100.00
20043;BME280;10182;52.896;6.496;2023-02-19T11:24:32;102287.06;;;6.77;100.00
20043;BME280;10182;52.896;6.496;2023-02-19T11:29:38;102288.84;;;6.73;100.00
20043;BME280;10182;52.896;6.496;2023-02-19T11:34:39;102274.69;;;6.88;100.00
20043;BME280;10182;52.896;6.496;2023-02-19T11:39:43;102277.34;;;6.87;100.00
20043;BME280;10182;52.896;6.496;2023-02-19T11:44:59;102264.22;;;6.84;100.00
20043;BME280;10182;52.896;6.496;2023-02-19T11:50:14;102267.59;;;7.03;100.00
20043;BME280;10182;52.896;6.496;2023-02-19T11:55:28;102278.84;;;7.19;100.00
20043;BME280;10182;52.896;6.496;2023-02-19T12:00:40;102269.09;;;7.33;100.00
20043;BME280;10182;52.896;6.496;2023-02-19T12:06:03;102263.72;;;7.44;100.00
20043;BME280;10182;52.896;6.496;2023-02-19T12:11:19;102261.25;;;7.24;100.00
20043;BME280;10182;52.896;6.496;2023-02-19T12:16:32;102273.44;;;7.37;100.00
20043;BME280;10182;52.896;6.496;2023-02-19T12:21:46;102281.25;;;7.48;100.00
20043;BME280;10182;52.896;6.496;2023-02-19T12:27:03;102285.47;;;7.66;100.00
20043;BME280;10182;52.896;6.496;2023-02-19T12:32:27;102297.66;;;7.79;100.00
20043;BME280;10182;52.896;6.496;2023-02-19T12:37:43;102291.41;;;7.87;100.00
20043;BME280;10182;52.896;6.496;2023-02-19T12:42:56;102300.97;;;8.00;100.00
20043;BME280;10182;52.896;6.496;2023-02-19T12:48:07;102303.50;;;8.06;100.00
20043;BME280;10182;52.896;6.496;2023-02-19T12:53:22;102306.94;;;8.14;100.00
20043;BME280;10182;52.896;6.496;2023-02-19T12:58:28;102319.34;;;8.09;100.00
20043;BME280;10182;52.896;6.496;2023-02-19T13:03:38;102315.09;;;7.94;100.00
20043;BME280;10182;52.896;6.496;2023-02-19T13:08:44;102313.72;;;7.56;100.00
20043;BME280;10182;52.896;6.496;2023-02-19T13:13:51;102329.34;;;7.73;100.00
20043;BME280;10182;52.896;6.496;2023-02-19T13:18:58;102332.13;;;7.59;100.00
20043;BME280;10182;52.896;6.496;2023-02-19T13:24:03;102341.59;;;7.79;100.00
20043;BME280;10182;52.896;6.496;2023-02-19T13:29:15;102354.69;;;7.94;100.00
20043;BME280;10182;52.896;6.496;2023-02-19T13:34:38;102339.56;;;8.07;100.00
20043;BME280;10182;52.896;6.496;2023-02-19T13:39:45;102337.84;;;8.03;100.00
20043;BME280;10182;52.896;6.496;2023-02-19T13:44:49;102343.34;;;7.82;100.00
20043;BME280;10182;52.896;6.496;2023-02-19T13:50:06;102345.09;;;7.84;100.00
20043;BME280;10182;52.896;6.496;2023-02-19T13:55:46;102325.81;;;7.77;100.00
20043;BME280;10182;52.896;6.496;2023-02-19T14:00:51;102327.63;;;7.74;100.00
20043;BME280;10182;52.896;6.496;2023-02-19T14:06:01;102325.88;;;7.71;100.00
20043;BME280;10182;52.896;6.496;2023-02-19T14:11:05;102304.00;;;7.60;100.00
20043;BME280;10182;52.896;6.496;2023-02-19T14:16:28;102282.91;;;7.61;100.00
20043;BME280;10182;52.896;6.496;2023-02-19T14:21:36;102276.75;;;7.59;100.00
20043;BME280;10182;52.896;6.496;2023-02-19T14:26:40;102272.25;;;7.72;100.00
20043;BME280;10182;52.896;6.496;2023-02-19T14:31:43;102270.47;;;7.73;100.00
20043;BME280;10182;52.896;6.496;2023-02-19T14:36:49;102278.31;;;7.77;100.00
20043;BME280;10182;52.896;6.496;2023-02-19T14:41:56;102279.16;;;7.81;100.00
20043;BME280;10182;52.896;6.496;2023-02-19T14:47:03;102269.41;;;7.89;100.00
20043;BME280;10182;52.896;6.496;2023-02-19T14:52:12;102257.22;;;7.81;100.00
20043;BME280;10182;52.896;6.496;2023-02-19T14:57:18;102269.53;;;7.77;100.00
20043;BME280;10182;52.896;6.496;2023-02-19T15:02:23;102270.44;;;7.74;100.00
20043;BME280;10182;52.896;6.496;2023-02-19T15:07:31;102271.44;;;7.61;100.00
20043;BME280;10182;52.896;6.496;2023-02-19T15:12:39;102287.34;;;7.56;100.00
20043;BME280;10182;52.896;6.496;2023-02-19T15:17:42;102301.44;;;7.52;100.00
20043;BME280;10182;52.896;6.496;2023-02-19T15:22:46;102310.31;;;7.42;100.00
20043;BME280;10182;52.896;6.496;2023-02-19T15:27:48;102291.81;;;7.48;100.00
20043;BME280;10182;52.896;6.496;2023-02-19T15:32:52;102293.50;;;7.55;100.00
20043;BME280;10182;52.896;6.496;2023-02-19T15:37:56;102284.72;;;7.55;100.00
20043;BME280;10182;52.896;6.496;2023-02-19T15:42:58;102287.41;;;7.49;100.00
20043;BME280;10182;52.896;6.496;2023-02-19T15:48:04;102291.81;;;7.47;100.00
20043;BME280;10182;52.896;6.496;2023-02-19T15:53:13;102299.03;;;7.26;100.00
20043;BME280;10182;52.896;6.496;2023-02-19T15:58:22;102319.28;;;7.16;100.00
20043;BME280;10182;52.896;6.496;2023-02-19T16:03:28;102332.50;;;7.11;100.00
20043;BME280;10182;52.896;6.496;2023-02-19T16:08:33;102333.47;;;6.97;100.00
20043;BME280;10182;52.896;6.496;2023-02-19T16:13:35;102326.53;;;6.86;100.00
20043;BME280;10182;52.896;6.496;2023-02-19T16:18:37;102323.06;;;6.76;100.00
20043;BME280;10182;52.896;6.496;2023-02-19T16:23:42;102335.34;;;6.77;100.00
20043;BME280;10182;52.896;6.496;2023-02-19T16:28:49;102335.38;;;6.74;100.00
20043;BME280;10182;52.896;6.496;2023-02-19T16:33:52;102336.28;;;6.63;100.00
20043;BME280;10182;52.896;6.496;2023-02-19T16:39:14;102339.84;;;6.49;100.00
20043;BME280;10182;52.896;6.496;2023-02-19T16:44:29;102344.28;;;6.39;100.00
20043;BME280;10182;52.896;6.496;2023-02-19T16:49:36;102354.81;;;6.41;100.00
20043;BME280;10182;52.896;6.496;2023-02-19T16:54:39;102365.34;;;6.39;100.00
20043;BME280;10182;52.896;6.496;2023-02-19T16:59:41;102382.03;;;6.38;100.00
20043;BME280;10182;52.896;6.496;2023-02-19T17:04:43;102373.22;;;6.41;100.00
20043;BME280;10182;52.896;6.496;2023-02-19T17:09:47;102361.84;;;6.39;100.00
20043;BME280;10182;52.896;6.496;2023-02-19T17:14:49;102359.25;;;6.26;100.00
20043;BME280;10182;52.896;6.496;2023-02-19T17:19:51;102360.13;;;6.24;100.00
20043;BME280;10182;52.896;6.496;2023-02-19T17:24:54;102361.94;;;6.11;100.00
20043;BME280;10182;52.896;6.496;2023-02-19T17:29:56;102360.19;;;6.04;100.00
20043;BME280;10182;52.896;6.496;2023-02-19T17:34:58;102376.81;;;5.90;100.00
20043;BME280;10182;52.896;6.496;2023-02-19T17:40:01;102391.75;;;5.85;100.00
20043;BME280;10182;52.896;6.496;2023-02-19T17:45:04;102389.97;;;5.78;100.00
20043;BME280;10182;52.896;6.496;2023-02-19T17:50:08;102389.13;;;5.73;100.00
20043;BME280;10182;52.896;6.496;2023-02-19T17:55:13;102375.97;;;5.64;100.00
20043;BME280;10182;52.896;6.496;2023-02-19T18:00:19;102382.13;;;5.61;100.00
20043;BME280;10182;52.896;6.496;2023-02-19T18:05:21;102387.38;;;5.56;100.00
20043;BME280;10182;52.896;6.496;2023-02-19T18:10:25;102386.47;;;5.56;100.00
20043;BME280;10182;52.896;6.496;2023-02-19T18:15:27;102390.00;;;5.59;100.00
20043;BME280;10182;52.896;6.496;2023-02-19T18:20:29;102390.00;;;5.56;100.00
20043;BME280;10182;52.896;6.496;2023-02-19T18:25:33;102384.75;;;5.58;100.00
20043;BME280;10182;52.896;6.496;2023-02-19T18:30:35;102374.22;;;5.52;100.00
20043;BME280;10182;52.896;6.496;2023-02-19T18:35:36;102363.69;;;5.53;100.00
20043;BME280;10182;52.896;6.496;2023-02-19T18:40:39;102351.44;;;5.49;100.00
20043;BME280;10182;52.896;6.496;2023-02-19T18:45:42;102342.66;;;5.41;100.00
20043;BME280;10182;52.896;6.496;2023-02-19T18:50:46;102350.56;;;5.39;100.00
20043;BME280;10182;52.896;6.496;2023-02-19T18:55:49;102358.44;;;5.35;100.00
20043;BME280;10182;52.896;6.496;2023-02-19T19:00:51;102369.84;;;5.31;100.00
20043;BME280;10182;52.896;6.496;2023-02-19T19:05:56;102377.69;;;5.21;100.00
20043;BME280;10182;52.896;6.496;2023-02-19T19:11:00;102392.56;;;5.18;100.00
20043;BME280;10182;52.896;6.496;2023-02-19T19:16:02;102395.19;;;5.19;100.00
20043;BME280;10182;52.896;6.496;2023-02-19T19:21:05;102391.69;;;5.19;100.00
20043;BME280;10182;52.896;6.496;2023-02-19T19:26:10;102383.81;;;5.20;100.00
20043;BME280;10182;52.896;6.496;2023-02-19T19:31:14;102365.44;;;5.19;100.00
20043;BME280;10182;52.896;6.496;2023-02-19T19:36:19;102351.44;;;5.17;100.00
20043;BME280;10182;52.896;6.496;2023-02-19T19:41:22;102372.41;;;5.09;100.00
20043;BME280;10182;52.896;6.496;2023-02-19T19:46:25;102368.06;;;5.13;100.00
20043;BME280;10182;52.896;6.496;2023-02-19T19:51:30;102354.94;;;5.13;100.00
20043;BME280;10182;52.896;6.496;2023-02-19T19:56:39;102358.38;;;5.01;100.00
20043;BME280;10182;52.896;6.496;2023-02-19T20:01:47;102336.50;;;5.03;100.00
20043;BME280;10182;52.896;6.496;2023-02-19T20:06:49;102339.13;;;4.96;100.00
20043;BME280;10182;52.896;6.496;2023-02-19T20:11:56;102339.97;;;4.95;100.00
20043;BME280;10182;52.896;6.496;2023-02-19T20:16:58;102343.50;;;4.94;100.00
20043;BME280;10182;52.896;6.496;2023-02-19T20:22:01;102353.09;;;4.85;100.00
20043;BME280;10182;52.896;6.496;2023-02-19T20:27:04;102332.94;;;4.78;100.00
20043;BME280;10182;52.896;6.496;2023-02-19T20:32:06;102331.22;;;4.83;100.00
20043;BME280;10182;52.896;6.496;2023-02-19T20:37:08;102329.44;;;4.74;100.00
20043;BME280;10182;52.896;6.496;2023-02-19T20:42:11;102315.44;;;4.74;100.00
20043;BME280;10182;52.896;6.496;2023-02-19T20:47:13;102291.81;;;4.80;100.00
20043;BME280;10182;52.896;6.496;2023-02-19T20:52:15;102288.31;;;4.80;100.00
20043;BME280;10182;52.896;6.496;2023-02-19T20:57:20;102287.41;;;4.71;100.00
20043;BME280;10182;52.896;6.496;2023-02-19T21:02:24;102305.78;;;4.67;100.00
20043;BME280;10182;52.896;6.496;2023-02-19T21:07:29;102337.28;;;4.64;100.00
20043;BME280;10182;52.896;6.496;2023-02-19T21:12:32;102345.16;;;4.65;100.00
20043;BME280;10182;52.896;6.496;2023-02-19T21:17:34;102363.53;;;4.62;100.00
20043;BME280;10182;52.896;6.496;2023-02-19T21:22:36;102352.13;;;4.58;100.00
20043;BME280;10182;52.896;6.496;2023-02-19T21:27:39;102360.00;;;4.60;100.00
20043;BME280;10182;52.896;6.496;2023-02-19T21:32:41;102348.66;;;4.60;100.00
20043;BME280;10182;52.896;6.496;2023-02-19T21:37:43;102357.38;;;4.55;100.00
20043;BME280;10182;52.896;6.496;2023-02-19T21:42:46;102360.88;;;4.54;100.00
20043;BME280;10182;52.896;6.496;2023-02-19T21:47:48;102346.84;;;4.52;100.00
20043;BME280;10182;52.896;6.496;2023-02-19T21:52:51;102342.44;;;4.47;100.00
20043;BME280;10182;52.896;6.496;2023-02-19T21:57:54;102327.59;;;4.47;100.00
20043;BME280;10182;52.896;6.496;2023-02-19T22:02:56;102327.59;;;4.52;100.00
20043;BME280;10182;52.896;6.496;2023-02-19T22:07:58;102320.59;;;4.52;100.00
20043;BME280;10182;52.896;6.496;2023-02-19T22:13:02;102339.88;;;4.51;100.00
20043;BME280;10182;52.896;6.496;2023-02-19T22:18:04;102333.75;;;4.54;100.00
20043;BME280;10182;52.896;6.496;2023-02-19T22:23:07;102337.25;;;4.50;100.00
20043;BME280;10182;52.896;6.496;2023-02-19T22:28:10;102342.50;;;4.50;100.00
20043;BME280;10182;52.896;6.496;2023-02-19T22:33:12;102345.97;;;4.49;100.00
20043;BME280;10182;52.896;6.496;2023-02-19T22:38:14;102332.00;;;4.59;100.00
20043;BME280;10182;52.896;6.496;2023-02-19T22:43:17;102316.25;;;4.50;100.00
20043;BME280;10182;52.896;6.496;2023-02-19T22:48:19;102322.34;;;4.50;100.00
20043;BME280;10182;52.896;6.496;2023-02-19T22:53:21;102312.72;;;4.51;100.00
20043;BME280;10182;52.896;6.496;2023-02-19T22:58:24;102295.25;;;4.53;100.00
20043;BME280;10182;52.896;6.496;2023-02-19T23:03:26;102289.13;;;4.55;100.00
20043;BME280;10182;52.896;6.496;2023-02-19T23:08:28;102284.75;;;4.50;100.00
20043;BME280;10182;52.896;6.496;2023-02-19T23:13:31;102266.34;;;4.44;100.00
20043;BME280;10182;52.896;6.496;2023-02-19T23:18:33;102255.84;;;4.44;100.00
20043;BME280;10182;52.896;6.496;2023-02-19T23:23:35;102243.59;;;4.39;100.00
20043;BME280;10182;52.896;6.496;2023-02-19T23:28:39;102243.59;;;4.41;100.00
20043;BME280;10182;52.896;6.496;2023-02-19T23:33:42;102227.00;;;4.44;100.00
20043;BME280;10182;52.896;6.496;2023-02-19T23:38:44;102224.38;;;4.44;100.00
20043;BME280;10182;52.896;6.496;2023-02-19T23:43:47;102210.38;;;4.46;100.00
20043;BME280;10182;52.896;6.496;2023-02-19T23:48:49;102207.78;;;4.57;100.00
20043;BME280;10182;52.896;6.496;2023-02-19T23:53:53;102192.91;;;4.62;100.00
20043;BME280;10182;52.896;6.496;2023-02-19T23:58:56;102185.91;;;4.58;100.00
